.
WxDataArchive / Data Records for 2012-04-05
2012-04-04 April 2012 2012-04-06

Data Records for Thursday, 05 April 2012

Time	Temp	Chill	HIndex	Humid	Dewpt	 Wind 	HiWind	WindDir	Rain 	Barom 
-----	----	-----	------	-----	-----	------	------	-------	-----	----- 
00:00	47.1	47.1	47.1	58	33.1	1	3	90	0.00	29.899 
00:05	47.0	47.0	47.0	59	33.4	2	4	90	0.00	29.899 
00:10	46.8	46.8	46.8	59	33.2	2	4	112	0.00	29.899 
00:15	46.7	46.7	46.7	60	33.6	1	4	112	0.00	29.898 
00:20	46.5	46.5	46.5	61	33.8	2	6	112	0.00	29.898 
00:25	46.4	46.4	46.4	61	33.7	1	3	135	0.00	29.898 
00:30	46.1	46.1	46.1	62	33.8	1	2	135	0.00	29.907 
00:35	46.0	46.0	46.0	62	33.7	1	3	135	0.00	29.907 
00:40	45.7	45.7	45.7	63	33.8	1	3	135	0.00	29.907 
00:45	45.4	45.4	45.4	63	33.6	1	4	90	0.00	29.906 
00:50	45.2	45.2	45.2	64	33.8	1	3	90	0.00	29.906 
00:55	45.1	45.1	45.1	64	33.7	1	4	90	0.00	29.906 
01:00	44.9	44.9	44.9	65	33.9	1	3	90	0.00	29.907 
01:05	44.8	44.8	44.8	65	33.8	1	3	90	0.00	29.907 
01:10	44.5	44.5	44.5	65	33.5	0	2	90	0.00	29.907 
01:15	44.3	44.3	44.3	66	33.7	0	2	90	0.00	29.906 
01:20	44.1	44.1	44.1	67	33.9	0	2	90	0.00	29.906 
01:25	44.1	44.1	44.1	67	33.9	1	2	90	0.00	29.906 
01:30	43.9	43.9	43.9	67	33.7	0	2	90	0.00	29.904 
01:35	43.9	43.9	43.9	67	33.7	1	3	90	0.00	29.904 
01:40	43.9	43.9	43.9	67	33.7	1	4	90	0.00	29.904 
01:45	43.8	43.8	43.8	68	33.9	0	2	90	0.00	29.901 
01:50	43.5	43.5	43.5	68	33.7	1	2	90	0.00	29.901 
01:55	43.3	43.3	43.3	69	33.8	0	4	90	0.00	29.901 
02:00	43.2	43.2	43.2	69	33.7	0	1	90	0.00	29.899 
02:05	43.1	43.1	43.1	70	34.0	0	2	90	0.00	29.899 
02:10	42.9	42.9	42.9	70	33.8	0	2	90	0.00	29.899 
02:15	42.8	42.8	42.8	71	34.1	1	3	90	0.00	29.894 
02:20	42.6	42.6	42.6	71	33.9	1	3	90	0.00	29.894 
02:25	42.6	42.6	42.6	72	34.2	1	5	90	0.00	29.894 
02:30	42.5	42.5	42.5	72	34.1	1	5	112	0.00	29.892 
02:35	42.3	42.3	42.3	73	34.3	1	2	112	0.00	29.892 
02:40	42.3	42.3	42.3	73	34.3	2	6	90	0.00	29.892 
02:45	42.2	42.2	42.2	73	34.2	1	4	90	0.00	29.892 
02:50	42.1	42.1	42.1	73	34.1	0	2	112	0.00	29.892 
02:55	41.9	41.9	41.9	74	34.2	1	3	112	0.00	29.892 
03:00	41.9	41.9	41.9	74	34.2	1	6	90	0.00	29.893 
03:05	41.9	41.9	41.9	74	34.2	2	5	90	0.00	29.893 
03:10	41.9	41.9	41.9	74	34.2	1	5	90	0.00	29.893 
03:15	41.8	41.8	41.8	75	34.5	1	4	90	0.00	29.893 
03:20	41.6	41.6	41.6	75	34.3	2	6	112	0.00	29.893 
03:25	41.6	41.6	41.6	75	34.3	2	7	90	0.00	29.893 
03:30	41.5	41.5	41.5	75	34.2	1	4	112	0.00	29.898 
03:35	41.5	41.5	41.5	75	34.2	2	6	112	0.00	29.898 
03:40	41.5	41.5	41.5	74	33.8	1	4	90	0.00	29.898 
03:45	41.3	41.3	41.3	74	33.6	1	5	112	0.00	29.907 
03:50	41.2	41.2	41.2	74	33.6	0	3	112	0.00	29.907 
03:55	41.1	41.1	41.1	74	33.5	1	3	90	0.00	29.907 
04:00	40.9	40.9	40.9	74	33.3	1	4	135	0.00	29.910 
04:05	40.8	40.8	40.8	75	33.5	0	2	135	0.00	29.910 
04:10	40.6	40.6	40.6	75	33.3	0	2	135	0.00	29.910 
04:15	40.5	40.5	40.5	75	33.2	0	2	135	0.00	29.907 
04:20	40.3	40.3	40.3	76	33.3	0	2	45	0.00	29.907 
04:25	40.2	40.2	40.2	76	33.3	0	2	45	0.00	29.907 
04:30	40.1	40.1	40.1	76	33.2	0	1	45	0.00	29.913 
04:35	39.9	39.9	39.9	76	33.0	0	2	45	0.00	29.913 
04:40	39.9	39.9	39.9	76	33.0	0	2	45	0.00	29.913 
04:45	39.8	39.8	39.8	76	32.9	0	2	45	0.00	29.911 
04:50	39.6	39.6	39.6	77	33.0	0	1	45	0.00	29.911 
04:55	39.6	39.6	39.6	77	33.0	0	1	45	0.00	29.911 
05:00	39.5	39.5	39.5	77	32.9	0	1	45	0.00	29.912 
05:05	39.5	39.5	39.5	77	32.9	0	0	---	0.00	29.912 
05:10	39.3	39.3	39.3	77	32.7	0	0	---	0.00	29.912 
05:15	39.2	39.2	39.2	77	32.6	0	1	45	0.00	29.915 
05:20	39.2	39.2	39.2	77	32.6	0	2	45	0.00	29.915 
05:25	39.2	39.2	39.2	77	32.6	0	2	45	0.00	29.915 
05:30	39.2	39.2	39.2	76	32.3	0	2	45	0.00	29.919 
05:35	39.1	39.1	39.1	75	31.9	1	4	112	0.00	29.919 
05:40	39.1	39.1	39.1	75	31.9	0	3	112	0.00	29.919 
05:45	39.1	39.1	39.1	73	31.2	1	3	112	0.00	29.924 
05:50	39.1	39.1	39.1	73	31.2	0	3	112	0.00	29.924 
05:55	38.9	38.9	38.9	72	30.7	0	3	112	0.00	29.924 
06:00	38.9	38.9	38.9	71	30.3	1	5	112	0.00	29.926 
06:05	38.8	38.8	38.8	71	30.2	0	3	112	0.00	29.926 
06:10	38.8	38.8	38.8	71	30.2	1	4	45	0.00	29.926 
06:15	38.6	38.6	38.6	71	30.0	0	3	45	0.00	29.930 
06:20	38.5	38.5	38.5	71	29.9	0	2	112	0.00	29.930 
06:25	38.3	38.3	38.3	70	29.4	0	3	112	0.00	29.930 
06:30	38.2	38.2	38.2	70	29.3	1	4	112	0.00	29.943 
06:35	38.2	38.2	38.2	70	29.3	0	2	112	0.00	29.943 
06:40	38.0	38.0	38.0	70	29.1	0	3	112	0.00	29.943 
06:45	37.9	37.9	37.9	70	29.0	0	3	112	0.00	29.946 
06:50	37.9	37.9	37.9	71	29.4	0	2	112	0.00	29.946 
06:55	37.8	37.8	37.8	71	29.3	0	1	112	0.00	29.946 
07:00	37.6	37.6	37.6	71	29.1	0	0	---	0.00	29.952 
07:05	37.5	37.5	37.5	71	29.0	0	0	---	0.00	29.952 
07:10	37.3	37.3	37.3	72	29.1	0	1	112	0.00	29.952 
07:15	37.2	37.2	37.2	72	29.0	0	1	112	0.00	29.956 
07:20	37.2	37.2	37.2	72	29.0	0	2	112	0.00	29.956 
07:25	37.2	37.2	37.2	71	28.7	0	2	45	0.00	29.956 
07:30	37.2	37.2	37.2	71	28.7	0	2	45	0.00	29.963 
07:35	37.3	37.3	37.3	71	28.8	0	3	68	0.00	29.963 
07:40	37.3	37.3	37.3	71	28.8	0	1	68	0.00	29.963 
07:45	37.3	37.3	37.3	71	28.8	1	4	68	0.00	29.964 
07:50	37.5	37.5	37.5	70	28.6	0	2	90	0.00	29.964 
07:55	37.5	37.5	37.5	70	28.6	0	4	90	0.00	29.964 
08:00	37.5	37.5	37.5	70	28.6	0	1	90	0.00	29.967 
08:05	37.6	37.6	37.6	69	28.4	0	2	90	0.00	29.967 
08:10	37.8	37.8	37.8	69	28.6	0	4	90	0.00	29.967 
08:15	37.9	37.9	37.9	69	28.7	1	4	90	0.00	29.982 
08:20	38.3	38.3	38.3	67	28.3	1	4	90	0.00	29.982 
08:25	38.6	38.6	38.6	67	28.6	1	5	135	0.00	29.982 
08:30	38.9	38.9	38.9	66	28.5	1	5	135	0.00	29.983 
08:35	39.2	39.2	39.2	65	28.4	2	7	112	0.00	29.983 
08:40	39.5	39.5	39.5	65	28.7	2	7	112	0.00	29.983 
08:45	39.8	39.8	39.8	65	29.0	1	4	112	0.00	29.988 
08:50	40.2	40.2	40.2	64	29.0	2	6	112	0.00	29.988 
08:55	40.5	40.5	40.5	64	29.3	1	9	112	0.00	29.988 
09:00	40.9	40.9	40.9	63	29.3	2	4	112	0.00	29.996 
09:05	41.2	41.2	41.2	64	30.0	2	5	90	0.00	29.996 
09:10	41.6	41.6	41.6	61	29.2	2	6	90	0.00	29.996 
09:15	41.8	41.8	41.8	63	30.1	2	7	112	0.00	29.999 
09:20	42.1	42.1	42.1	62	30.0	2	5	112	0.00	29.999 
09:25	42.2	39.9	42.2	60	29.3	4	8	112	0.00	29.999 
09:30	42.3	42.3	42.3	62	30.2	2	6	90	0.00	30.005 
09:35	42.5	42.5	42.5	62	30.4	3	6	112	0.00	30.005 
09:40	42.5	42.5	42.5	63	30.8	1	6	90	0.00	30.005 
09:45	42.5	42.5	42.5	62	30.4	2	6	112	0.00	30.010 
09:50	42.3	42.3	42.3	62	30.2	3	6	90	0.00	30.010 
09:55	42.3	42.3	42.3	63	30.6	2	6	90	0.00	30.010 
10:00	42.5	42.5	42.5	63	30.8	1	7	68	0.00	30.013 
10:05	42.6	42.6	42.6	63	30.9	2	6	90	0.00	30.013 
10:10	42.9	42.9	42.9	64	31.6	0	2	90	0.00	30.013 
10:15	43.2	43.2	43.2	63	31.5	2	5	90	0.00	30.013 
10:20	42.9	40.7	42.9	61	30.4	4	10	112	0.00	30.013 
10:25	42.8	42.8	42.8	62	30.7	3	7	112	0.00	30.013 
10:30	42.9	42.9	42.9	62	30.8	2	6	112	0.00	30.013 
10:35	43.2	43.2	43.2	62	31.1	2	5	90	0.00	30.013 
10:40	43.6	43.6	43.6	61	31.0	2	6	135	0.00	30.013 
10:45	43.8	43.8	43.8	62	31.6	2	4	90	0.00	30.012 
10:50	44.1	44.1	44.1	62	31.9	2	4	90	0.00	30.012 
10:55	44.5	44.5	44.5	60	31.5	2	6	90	0.00	30.012 
11:00	44.8	44.8	44.8	59	31.4	3	9	90	0.00	30.012 
11:05	45.1	45.1	45.1	59	31.6	3	8	90	0.00	30.012 
11:10	45.7	45.7	45.7	58	31.8	3	6	90	0.00	30.012 
11:15	46.2	44.5	46.2	57	31.8	4	7	112	0.00	30.014 
11:20	46.8	45.2	46.8	57	32.4	4	9	112	0.00	30.014 
11:25	47.4	47.4	47.4	57	32.9	2	9	90	0.00	30.014 
11:30	48.2	48.2	48.2	55	32.8	3	7	112	0.00	30.008 
11:35	48.9	48.9	48.9	52	32.1	3	6	112	0.00	30.008 
11:40	48.8	48.8	48.8	53	32.4	3	7	112	0.00	30.008 
11:45	48.8	48.8	48.8	53	32.4	2	6	112	0.00	30.000 
11:50	49.1	49.1	49.1	52	32.2	1	6	112	0.00	30.000 
11:55	49.2	49.2	49.2	51	31.9	3	9	112	0.00	30.000 
12:00	49.2	49.2	49.2	52	32.3	3	9	90	0.00	29.996 
12:05	49.5	49.5	49.5	54	33.6	3	5	112	0.00	29.996 
12:10	49.9	49.9	49.9	54	33.9	2	7	90	0.00	29.996 
12:15	50.1	50.1	50.1	52	33.2	3	9	112	0.00	29.996 
12:20	50.1	50.1	50.1	52	33.2	1	4	22	0.00	29.996 
12:25	50.4	50.4	50.4	54	34.4	1	4	112	0.00	29.996 
12:30	50.5	50.5	50.5	53	34.0	1	6	158	0.00	29.999 
12:35	50.7	50.7	50.7	52	33.7	1	5	112	0.00	29.999 
12:40	50.4	50.4	50.4	51	33.0	3	7	112	0.00	29.999 
12:45	50.1	50.1	50.1	54	34.1	2	6	112	0.00	30.009 
12:50	49.6	49.6	49.6	51	32.2	3	10	90	0.00	30.009 
12:55	49.5	49.5	49.5	52	32.6	1	6	135	0.00	30.009 
13:00	49.8	49.8	49.8	53	33.4	1	4	90	0.00	30.005 
13:05	50.1	50.1	50.1	52	33.2	2	7	90	0.00	30.005 
13:10	50.4	50.4	50.4	51	33.0	1	6	90	0.00	30.005 
13:15	50.7	50.7	50.7	54	34.7	1	11	45	0.00	29.998 
13:20	51.3	51.3	51.3	50	33.3	2	11	135	0.00	29.998 
13:25	51.6	51.6	51.6	48	32.6	5	14	112	0.00	29.998 
13:30	51.1	51.1	51.1	46	31.0	4	15	112	0.00	29.996 
13:35	51.0	51.0	51.0	50	33.0	2	10	90	0.00	29.996 
13:40	51.3	51.3	51.3	47	31.8	3	11	112	0.00	29.996 
13:45	51.3	51.3	51.3	47	31.8	2	8	112	0.00	29.996 
13:50	51.7	51.7	51.7	50	33.7	2	10	135	0.00	29.996 
13:55	51.9	51.9	51.9	49	33.3	3	7	112	0.00	29.996 
14:00	51.7	51.7	51.7	46	31.6	2	7	112	0.00	29.996 
14:05	52.0	52.0	52.0	49	33.4	3	10	112	0.00	29.996 
14:10	52.2	52.2	52.2	50	34.1	3	9	90	0.00	29.996 
14:15	52.2	52.2	52.2	48	33.1	4	11	90	0.00	29.995 
14:20	52.0	52.0	52.0	48	32.9	2	10	112	0.00	29.995 
14:25	51.4	51.4	51.4	48	32.4	2	6	112	0.00	29.995 
14:30	52.0	52.0	52.0	49	33.4	1	4	112	0.00	29.997 
14:35	52.3	52.3	52.3	52	35.2	1	7	112	0.00	29.997 
14:40	52.3	52.3	52.3	47	32.7	3	10	112	0.00	29.997 
14:45	52.3	52.3	52.3	48	33.2	1	6	112	0.00	29.997 
14:50	52.9	52.9	52.9	49	34.3	2	7	112	0.00	29.997 
14:55	53.3	53.3	53.3	47	33.6	2	6	90	0.00	29.997 
15:00	53.2	53.2	53.2	48	34.0	1	9	112	0.00	29.995 
15:05	52.8	52.8	52.8	45	32.1	5	10	112	0.00	29.995 
15:10	53.1	53.1	53.1	46	32.9	2	7	112	0.00	29.995 
15:15	53.2	53.2	53.2	44	31.9	3	11	112	0.00	29.995 
15:20	53.5	53.5	53.5	47	33.8	2	10	135	0.00	29.995 
15:25	53.5	53.5	53.5	47	33.8	2	5	135	0.00	29.995 
15:30	53.6	53.6	53.6	43	31.7	2	8	68	0.00	29.994 
15:35	53.6	53.6	53.6	44	32.2	2	9	112	0.00	29.994 
15:40	53.6	53.6	53.6	46	33.3	2	5	90	0.00	29.994 
15:45	53.6	53.6	53.6	43	31.7	2	5	135	0.00	29.986 
15:50	53.5	53.5	53.5	43	31.6	3	10	112	0.00	29.986 
15:55	53.5	53.5	53.5	46	33.2	1	6	112	0.00	29.986 
16:00	53.9	53.9	53.9	44	32.5	2	5	45	0.00	29.981 
16:05	54.1	54.1	54.1	44	32.7	1	5	315	0.00	29.981 
16:10	54.1	54.1	54.1	45	33.2	2	7	90	0.00	29.981 
16:15	53.9	53.9	53.9	45	33.1	0	3	158	0.00	29.981 
16:20	53.6	53.6	53.6	43	31.7	0	4	22	0.00	29.981 
16:25	53.5	53.5	53.5	44	32.1	1	4	45	0.00	29.981 
16:30	53.3	53.3	53.3	44	31.9	2	11	112	0.00	29.980 
16:35	53.2	53.2	53.2	43	31.3	2	10	112	0.00	29.980 
16:40	52.8	52.8	52.8	46	32.6	2	7	112	0.00	29.980 
16:45	52.8	52.8	52.8	47	33.1	2	12	112	0.00	29.981 
16:50	52.9	52.9	52.9	47	33.2	2	7	90	0.00	29.981 
16:55	52.8	52.8	52.8	45	32.1	2	9	90	0.00	29.981 
17:00	52.8	52.8	52.8	44	31.5	3	7	112	0.00	29.978 
17:05	52.8	52.8	52.8	43	30.9	1	5	135	0.00	29.978 
17:10	52.9	52.9	52.9	47	33.2	1	5	112	0.00	29.978 
17:15	53.1	53.1	53.1	45	32.3	1	4	135	0.00	29.979 
17:20	53.1	53.1	53.1	43	31.2	1	5	90	0.00	29.979 
17:25	52.8	52.8	52.8	43	30.9	2	7	112	0.00	29.979 
17:30	52.6	52.6	52.6	43	30.7	1	7	112	0.00	29.982 
17:35	52.5	52.5	52.5	45	31.8	1	5	68	0.00	29.982 
17:40	52.5	52.5	52.5	44	31.2	2	9	112	0.00	29.982 
17:45	52.5	52.5	52.5	44	31.2	2	4	112	0.00	29.982 
17:50	52.5	52.5	52.5	46	32.3	1	5	135	0.00	29.982 
17:55	52.5	52.5	52.5	44	31.2	1	6	112	0.00	29.982 
18:00	52.5	52.5	52.5	43	30.7	1	5	112	0.00	29.981 
18:05	52.3	52.3	52.3	44	31.0	1	5	90	0.00	29.981 
18:10	52.0	52.0	52.0	44	30.8	3	7	90	0.00	29.981 
18:15	51.7	51.7	51.7	44	30.5	2	10	112	0.00	29.987 
18:20	51.6	51.6	51.6	46	31.5	2	4	112	0.00	29.987 
18:25	51.4	51.4	51.4	45	30.8	1	5	90	0.00	29.987 
18:30	51.3	51.3	51.3	46	31.2	2	6	112	0.00	29.989 
18:35	51.3	51.3	51.3	45	30.7	2	5	112	0.00	29.989 
18:40	51.1	51.1	51.1	47	31.6	1	7	90	0.00	29.989 
18:45	51.0	51.0	51.0	45	30.4	2	4	90	0.00	29.999 
18:50	50.8	50.8	50.8	46	30.8	1	4	90	0.00	29.999 
18:55	50.5	50.5	50.5	46	30.5	2	7	90	0.00	29.999 
19:00	50.4	50.4	50.4	45	29.9	2	9	68	0.00	29.999 
19:05	50.2	50.2	50.2	46	30.2	1	7	112	0.00	29.999 
19:10	50.1	50.1	50.1	46	30.1	1	5	112	0.00	29.999 
19:15	49.9	49.9	49.9	45	29.4	2	7	90	0.00	30.001 
19:20	49.8	49.8	49.8	46	29.9	1	6	45	0.00	30.001 
19:25	49.6	49.6	49.6	48	30.7	1	3	112	0.00	30.001 
19:30	49.4	49.4	49.4	47	30.0	1	4	112	0.00	30.004 
19:35	49.2	49.2	49.2	47	29.8	1	3	112	0.00	30.004 
19:40	48.9	48.9	48.9	47	29.6	1	7	112	0.00	30.004 
19:45	48.8	48.8	48.8	46	28.9	1	6	112	0.00	30.016 
19:50	48.6	48.6	48.6	47	29.3	1	4	112	0.00	30.016 
19:55	48.5	48.5	48.5	48	29.7	1	4	112	0.00	30.016 
20:00	48.2	48.2	48.2	48	29.4	1	5	90	0.00	30.018 
20:05	47.9	47.9	47.9	49	29.7	1	3	90	0.00	30.018 
20:10	47.6	47.6	47.6	49	29.4	1	4	90	0.00	30.018 
20:15	47.3	47.3	47.3	50	29.6	0	2	90	0.00	30.020 
20:20	47.0	47.0	47.0	51	29.8	0	2	90	0.00	30.020 
20:25	46.7	46.7	46.7	51	29.5	0	5	90	0.00	30.020 
20:30	46.5	46.5	46.5	52	29.8	0	2	90	0.00	30.030 
20:35	46.2	46.2	46.2	52	29.6	0	3	90	0.00	30.030 
20:40	46.0	46.0	46.0	53	29.8	0	1	90	0.00	30.030 
20:45	45.7	45.7	45.7	53	29.6	0	3	90	0.00	30.037 
20:50	45.4	45.4	45.4	53	29.3	1	4	90	0.00	30.037 
20:55	45.2	45.2	45.2	54	29.6	0	2	90	0.00	30.037 
21:00	45.1	45.1	45.1	54	29.5	0	2	90	0.00	30.040 
21:05	44.8	44.8	44.8	54	29.2	0	2	90	0.00	30.040 
21:10	44.6	44.6	44.6	54	29.0	1	3	90	0.00	30.040 
21:15	44.5	44.5	44.5	54	28.9	0	3	90	0.00	30.048 
21:20	44.2	44.2	44.2	55	29.1	0	2	90	0.00	30.048 
21:25	44.1	44.1	44.1	56	29.4	0	1	90	0.00	30.048 
21:30	43.8	43.8	43.8	56	29.1	0	0	---	0.00	30.055 
21:35	43.6	43.6	43.6	57	29.4	0	1	90	0.00	30.055 
21:40	43.3	43.3	43.3	57	29.1	0	2	90	0.00	30.055 
21:45	43.2	43.2	43.2	57	29.0	0	2	90	0.00	30.065 
21:50	43.1	43.1	43.1	57	28.9	0	2	90	0.00	30.065 
21:55	42.9	42.9	42.9	57	28.7	0	1	90	0.00	30.065 
22:00	42.9	42.9	42.9	57	28.7	0	2	90	0.00	30.071 
22:05	42.9	42.9	42.9	58	29.2	1	4	90	0.00	30.071 
22:10	42.6	42.6	42.6	58	28.9	2	3	90	0.00	30.071 
22:15	42.2	42.2	42.2	61	29.7	2	6	112	0.00	30.078 
22:20	41.9	41.9	41.9	63	30.2	1	3	112	0.00	30.078 
22:25	41.6	41.6	41.6	64	30.3	1	4	112	0.00	30.078 
22:30	41.3	41.3	41.3	65	30.4	1	3	112	0.00	30.084 
22:35	41.1	41.1	41.1	66	30.6	0	2	112	0.00	30.084 
22:40	40.8	40.8	40.8	67	30.7	1	3	112	0.00	30.084 
22:45	40.5	40.5	40.5	68	30.8	0	2	112	0.00	30.093 
22:50	40.3	40.3	40.3	69	31.0	1	4	112	0.00	30.093 
22:55	40.1	40.1	40.1	70	31.1	0	2	112	0.00	30.093 
23:00	39.8	39.8	39.8	70	30.8	1	5	112	0.00	30.096 
23:05	39.6	39.6	39.6	70	30.6	0	3	112	0.00	30.096 
23:10	39.5	39.5	39.5	71	30.9	0	3	112	0.00	30.096 
23:15	39.2	39.2	39.2	71	30.6	0	0	---	0.00	30.099 
23:20	39.1	39.1	39.1	71	30.5	0	0	---	0.00	30.099 
23:25	38.8	38.8	38.8	72	30.6	0	1	112	0.00	30.099 
23:30	38.6	38.6	38.6	73	30.7	0	2	112	0.00	30.105 
23:35	38.5	38.5	38.5	73	30.6	1	2	112	0.00	30.105 
23:40	38.5	38.5	38.5	72	30.3	0	1	112	0.00	30.105 
23:45	38.3	38.3	38.3	73	30.4	0	1	112	0.00	30.114 
23:50	38.2	38.2	38.2	73	30.3	0	0	---	0.00	30.114 
23:55	37.9	37.9	37.9	73	30.0	0	0	---	0.00	30.114 

CoCoRaHS
IN-AL-39
A2 Web Hosting
Creative Commons License
GoDaddy
search engine by freefind advanced

loaded 2018-11-19 19:02:43 • last modified 2010-11-18 10:43:29
Privacy PolicyDisclaimer
• wx.awcolley.com is powered by PmWiki v.2002016 •
• all content (unless otherwise noted) © 2018 A W Colley